sensor_id;sensor_type;location;lat;lon;timestamp;P1;durP1;ratioP1;P2;durP2;ratioP2
18210;SDS011;9231;48.852;9.882;2023-10-13T00:00:29;10.27;;;5.70;;
18210;SDS011;9231;48.852;9.882;2023-10-13T00:02:59;7.90;;;5.10;;
18210;SDS011;9231;48.852;9.882;2023-10-13T00:05:27;10.17;;;5.60;;
18210;SDS011;9231;48.852;9.882;2023-10-13T00:07:53;12.67;;;5.23;;
18210;SDS011;9231;48.852;9.882;2023-10-13T00:10:20;8.93;;;5.57;;
18210;SDS011;9231;48.852;9.882;2023-10-13T00:12:46;8.87;;;5.07;;
18210;SDS011;9231;48.852;9.882;2023-10-13T00:15:17;7.43;;;5.43;;
18210;SDS011;9231;48.852;9.882;2023-10-13T00:17:47;8.23;;;5.87;;
18210;SDS011;9231;48.852;9.882;2023-10-13T00:20:14;10.17;;;5.30;;
18210;SDS011;9231;48.852;9.882;2023-10-13T00:22:41;8.80;;;5.57;;
18210;SDS011;9231;48.852;9.882;2023-10-13T00:25:09;11.80;;;5.60;;
18210;SDS011;9231;48.852;9.882;2023-10-13T00:27:44;9.17;;;5.33;;
18210;SDS011;9231;48.852;9.882;2023-10-13T00:30:13;8.87;;;5.33;;
18210;SDS011;9231;48.852;9.882;2023-10-13T00:32:49;9.40;;;5.80;;
18210;SDS011;9231;48.852;9.882;2023-10-13T00:35:20;7.80;;;5.07;;
18210;SDS011;9231;48.852;9.882;2023-10-13T00:37:54;10.83;;;5.23;;
18210;SDS011;9231;48.852;9.882;2023-10-13T00:40:22;10.40;;;5.33;;
18210;SDS011;9231;48.852;9.882;2023-10-13T00:43:05;9.40;;;5.00;;
18210;SDS011;9231;48.852;9.882;2023-10-13T00:45:57;9.37;;;5.10;;
18210;SDS011;9231;48.852;9.882;2023-10-13T00:48:25;9.10;;;4.83;;
18210;SDS011;9231;48.852;9.882;2023-10-13T00:50:58;8.67;;;4.93;;
18210;SDS011;9231;48.852;9.882;2023-10-13T00:53:28;8.63;;;5.13;;
18210;SDS011;9231;48.852;9.882;2023-10-13T00:55:55;5.83;;;4.70;;
18210;SDS011;9231;48.852;9.882;2023-10-13T00:58:21;7.27;;;5.17;;
18210;SDS011;9231;48.852;9.882;2023-10-13T01:00:49;9.37;;;5.03;;
18210;SDS011;9231;48.852;9.882;2023-10-13T01:03:21;8.77;;;4.47;;
18210;SDS011;9231;48.852;9.882;2023-10-13T01:05:52;8.87;;;4.77;;
18210;SDS011;9231;48.852;9.882;2023-10-13T01:08:19;11.50;;;4.80;;
18210;SDS011;9231;48.852;9.882;2023-10-13T01:10:58;8.40;;;5.07;;
18210;SDS011;9231;48.852;9.882;2023-10-13T01:13:24;8.17;;;4.90;;
18210;SDS011;9231;48.852;9.882;2023-10-13T01:15:50;7.73;;;4.90;;
18210;SDS011;9231;48.852;9.882;2023-10-13T01:18:18;6.27;;;4.53;;
18210;SDS011;9231;48.852;9.882;2023-10-13T01:20:43;7.87;;;4.80;;
18210;SDS011;9231;48.852;9.882;2023-10-13T01:23:12;6.27;;;4.33;;
18210;SDS011;9231;48.852;9.882;2023-10-13T01:25:43;8.47;;;5.20;;
18210;SDS011;9231;48.852;9.882;2023-10-13T01:28:10;9.87;;;4.87;;
18210;SDS011;9231;48.852;9.882;2023-10-13T01:30:36;8.10;;;5.30;;
18210;SDS011;9231;48.852;9.882;2023-10-13T01:33:04;7.80;;;5.17;;
18210;SDS011;9231;48.852;9.882;2023-10-13T01:35:30;9.83;;;4.93;;
18210;SDS011;9231;48.852;9.882;2023-10-13T01:38:02;7.60;;;4.73;;
18210;SDS011;9231;48.852;9.882;2023-10-13T01:40:29;7.57;;;5.07;;
18210;SDS011;9231;48.852;9.882;2023-10-13T01:42:58;6.43;;;4.83;;
18210;SDS011;9231;48.852;9.882;2023-10-13T01:45:24;8.83;;;4.77;;
18210;SDS011;9231;48.852;9.882;2023-10-13T01:47:54;9.47;;;4.80;;
18210;SDS011;9231;48.852;9.882;2023-10-13T01:50:19;9.13;;;4.80;;
18210;SDS011;9231;48.852;9.882;2023-10-13T01:52:53;10.00;;;5.33;;
18210;SDS011;9231;48.852;9.882;2023-10-13T01:55:37;7.77;;;4.47;;
18210;SDS011;9231;48.852;9.882;2023-10-13T01:58:04;8.30;;;5.00;;
18210;SDS011;9231;48.852;9.882;2023-10-13T02:00:39;9.37;;;5.03;;
18210;SDS011;9231;48.852;9.882;2023-10-13T02:03:07;9.70;;;4.27;;
18210;SDS011;9231;48.852;9.882;2023-10-13T02:05:40;6.80;;;4.80;;
18210;SDS011;9231;48.852;9.882;2023-10-13T02:08:09;9.97;;;4.63;;
18210;SDS011;9231;48.852;9.882;2023-10-13T02:10:37;6.43;;;4.50;;
18210;SDS011;9231;48.852;9.882;2023-10-13T02:13:10;7.77;;;4.80;;
18210;SDS011;9231;48.852;9.882;2023-10-13T02:15:40;6.93;;;4.67;;
18210;SDS011;9231;48.852;9.882;2023-10-13T02:18:07;5.47;;;4.40;;
18210;SDS011;9231;48.852;9.882;2023-10-13T02:20:34;6.07;;;4.00;;
18210;SDS011;9231;48.852;9.882;2023-10-13T02:23:07;6.97;;;4.70;;
18210;SDS011;9231;48.852;9.882;2023-10-13T02:25:35;7.80;;;4.10;;
18210;SDS011;9231;48.852;9.882;2023-10-13T02:28:09;8.80;;;4.30;;
18210;SDS011;9231;48.852;9.882;2023-10-13T02:30:38;11.50;;;4.90;;
18210;SDS011;9231;48.852;9.882;2023-10-13T02:33:04;9.17;;;5.13;;
18210;SDS011;9231;48.852;9.882;2023-10-13T02:35:31;8.10;;;4.97;;
18210;SDS011;9231;48.852;9.882;2023-10-13T02:38:06;6.43;;;4.40;;
18210;SDS011;9231;48.852;9.882;2023-10-13T02:40:36;6.47;;;4.27;;
18210;SDS011;9231;48.852;9.882;2023-10-13T02:43:02;8.37;;;4.63;;
18210;SDS011;9231;48.852;9.882;2023-10-13T02:45:31;6.00;;;4.63;;
18210;SDS011;9231;48.852;9.882;2023-10-13T02:47:57;7.50;;;4.97;;
18210;SDS011;9231;48.852;9.882;2023-10-13T02:50:36;7.43;;;4.70;;
18210;SDS011;9231;48.852;9.882;2023-10-13T02:53:03;8.43;;;4.37;;
18210;SDS011;9231;48.852;9.882;2023-10-13T02:55:37;7.47;;;5.10;;
18210;SDS011;9231;48.852;9.882;2023-10-13T02:58:04;7.30;;;5.17;;
18210;SDS011;9231;48.852;9.882;2023-10-13T03:00:32;8.63;;;4.50;;
18210;SDS011;9231;48.852;9.882;2023-10-13T03:02:58;7.07;;;4.50;;
18210;SDS011;9231;48.852;9.882;2023-10-13T03:05:25;7.93;;;4.40;;
18210;SDS011;9231;48.852;9.882;2023-10-13T03:07:54;8.50;;;5.00;;
18210;SDS011;9231;48.852;9.882;2023-10-13T03:10:20;6.37;;;4.70;;
18210;SDS011;9231;48.852;9.882;2023-10-13T03:12:46;7.07;;;4.40;;
18210;SDS011;9231;48.852;9.882;2023-10-13T03:15:14;6.00;;;4.73;;
18210;SDS011;9231;48.852;9.882;2023-10-13T03:17:44;8.40;;;4.13;;
18210;SDS011;9231;48.852;9.882;2023-10-13T03:20:11;9.50;;;4.50;;
18210;SDS011;9231;48.852;9.882;2023-10-13T03:22:39;5.40;;;4.23;;
18210;SDS011;9231;48.852;9.882;2023-10-13T03:25:04;7.40;;;4.13;;
18210;SDS011;9231;48.852;9.882;2023-10-13T03:27:32;6.33;;;4.57;;
18210;SDS011;9231;48.852;9.882;2023-10-13T03:30:05;7.90;;;4.50;;
18210;SDS011;9231;48.852;9.882;2023-10-13T03:32:36;7.90;;;4.90;;
18210;SDS011;9231;48.852;9.882;2023-10-13T03:35:09;8.87;;;4.33;;
18210;SDS011;9231;48.852;9.882;2023-10-13T03:37:38;8.67;;;4.70;;
18210;SDS011;9231;48.852;9.882;2023-10-13T03:40:06;7.97;;;4.57;;
18210;SDS011;9231;48.852;9.882;2023-10-13T03:42:41;6.87;;;4.10;;
18210;SDS011;9231;48.852;9.882;2023-10-13T03:45:07;7.10;;;3.97;;
18210;SDS011;9231;48.852;9.882;2023-10-13T03:47:35;7.83;;;4.90;;
18210;SDS011;9231;48.852;9.882;2023-10-13T03:50:03;9.97;;;4.60;;
18210;SDS011;9231;48.852;9.882;2023-10-13T03:52:42;12.87;;;3.97;;
18210;SDS011;9231;48.852;9.882;2023-10-13T03:55:09;7.33;;;4.10;;
18210;SDS011;9231;48.852;9.882;2023-10-13T03:57:43;11.07;;;4.00;;
18210;SDS011;9231;48.852;9.882;2023-10-13T04:00:11;6.90;;;3.97;;
18210;SDS011;9231;48.852;9.882;2023-10-13T04:02:46;8.07;;;4.40;;
18210;SDS011;9231;48.852;9.882;2023-10-13T04:05:17;7.20;;;4.40;;
18210;SDS011;9231;48.852;9.882;2023-10-13T04:08:03;7.17;;;4.00;;
18210;SDS011;9231;48.852;9.882;2023-10-13T04:10:49;7.93;;;4.50;;
18210;SDS011;9231;48.852;9.882;2023-10-13T04:13:33;4.57;;;3.50;;
18210;SDS011;9231;48.852;9.882;2023-10-13T04:16:17;5.87;;;4.20;;
18210;SDS011;9231;48.852;9.882;2023-10-13T04:18:57;7.07;;;4.40;;
18210;SDS011;9231;48.852;9.882;2023-10-13T04:21:33;7.53;;;4.57;;
18210;SDS011;9231;48.852;9.882;2023-10-13T04:24:22;9.20;;;4.13;;
18210;SDS011;9231;48.852;9.882;2023-10-13T04:26:56;8.03;;;4.30;;
18210;SDS011;9231;48.852;9.882;2023-10-13T04:29:39;6.57;;;4.10;;
18210;SDS011;9231;48.852;9.882;2023-10-13T04:32:35;6.50;;;4.37;;
18210;SDS011;9231;48.852;9.882;2023-10-13T04:35:04;7.43;;;4.50;;
18210;SDS011;9231;48.852;9.882;2023-10-13T04:37:42;4.80;;;4.30;;
18210;SDS011;9231;48.852;9.882;2023-10-13T04:40:17;6.83;;;4.20;;
18210;SDS011;9231;48.852;9.882;2023-10-13T04:42:49;6.40;;;4.33;;
18210;SDS011;9231;48.852;9.882;2023-10-13T04:45:15;10.17;;;4.73;;
18210;SDS011;9231;48.852;9.882;2023-10-13T04:48:03;6.33;;;4.20;;
18210;SDS011;9231;48.852;9.882;2023-10-13T04:50:39;4.70;;;3.97;;
18210;SDS011;9231;48.852;9.882;2023-10-13T04:53:10;8.37;;;4.10;;
18210;SDS011;9231;48.852;9.882;2023-10-13T04:55:53;7.27;;;4.73;;
18210;SDS011;9231;48.852;9.882;2023-10-13T04:58:33;7.43;;;4.73;;
18210;SDS011;9231;48.852;9.882;2023-10-13T05:01:31;7.47;;;4.67;;
18210;SDS011;9231;48.852;9.882;2023-10-13T05:04:26;6.60;;;4.20;;
18210;SDS011;9231;48.852;9.882;2023-10-13T05:07:24;8.80;;;4.93;;
18210;SDS011;9231;48.852;9.882;2023-10-13T05:10:08;8.13;;;4.90;;
18210;SDS011;9231;48.852;9.882;2023-10-13T05:12:53;8.33;;;4.63;;
18210;SDS011;9231;48.852;9.882;2023-10-13T05:15:42;7.10;;;4.80;;
18210;SDS011;9231;48.852;9.882;2023-10-13T05:18:26;7.53;;;4.63;;
18210;SDS011;9231;48.852;9.882;2023-10-13T05:21:10;7.60;;;5.30;;
18210;SDS011;9231;48.852;9.882;2023-10-13T05:23:54;9.83;;;5.03;;
18210;SDS011;9231;48.852;9.882;2023-10-13T05:26:38;6.70;;;4.73;;
18210;SDS011;9231;48.852;9.882;2023-10-13T05:29:23;10.63;;;4.80;;
18210;SDS011;9231;48.852;9.882;2023-10-13T05:32:07;9.00;;;4.53;;
18210;SDS011;9231;48.852;9.882;2023-10-13T05:34:51;6.27;;;4.57;;
18210;SDS011;9231;48.852;9.882;2023-10-13T05:37:35;7.43;;;4.57;;
18210;SDS011;9231;48.852;9.882;2023-10-13T05:40:19;6.77;;;4.97;;
18210;SDS011;9231;48.852;9.882;2023-10-13T05:43:03;9.93;;;4.60;;
18210;SDS011;9231;48.852;9.882;2023-10-13T05:45:49;8.43;;;4.77;;
18210;SDS011;9231;48.852;9.882;2023-10-13T05:48:32;7.67;;;4.73;;
18210;SDS011;9231;48.852;9.882;2023-10-13T05:51:28;6.13;;;4.37;;
18210;SDS011;9231;48.852;9.882;2023-10-13T05:53:58;7.17;;;4.67;;
18210;SDS011;9231;48.852;9.882;2023-10-13T05:56:42;7.87;;;4.60;;
18210;SDS011;9231;48.852;9.882;2023-10-13T05:59:26;8.60;;;4.63;;
18210;SDS011;9231;48.852;9.882;2023-10-13T06:02:26;8.73;;;5.23;;
18210;SDS011;9231;48.852;9.882;2023-10-13T06:05:10;8.13;;;4.70;;
18210;SDS011;9231;48.852;9.882;2023-10-13T06:07:55;7.20;;;5.07;;
18210;SDS011;9231;48.852;9.882;2023-10-13T06:10:39;9.27;;;5.00;;
18210;SDS011;9231;48.852;9.882;2023-10-13T06:13:22;7.23;;;5.10;;
18210;SDS011;9231;48.852;9.882;2023-10-13T06:16:06;10.03;;;5.43;;
18210;SDS011;9231;48.852;9.882;2023-10-13T06:18:52;10.67;;;5.67;;
18210;SDS011;9231;48.852;9.882;2023-10-13T06:21:32;10.13;;;5.57;;
18210;SDS011;9231;48.852;9.882;2023-10-13T06:24:15;9.37;;;5.77;;
18210;SDS011;9231;48.852;9.882;2023-10-13T06:26:59;9.80;;;6.77;;
18210;SDS011;9231;48.852;9.882;2023-10-13T06:29:43;16.53;;;9.60;;
18210;SDS011;9231;48.852;9.882;2023-10-13T06:32:11;13.83;;;9.43;;
18210;SDS011;9231;48.852;9.882;2023-10-13T06:34:39;14.47;;;9.57;;
18210;SDS011;9231;48.852;9.882;2023-10-13T06:37:10;14.93;;;7.50;;
18210;SDS011;9231;48.852;9.882;2023-10-13T06:39:47;13.37;;;8.40;;
18210;SDS011;9231;48.852;9.882;2023-10-13T06:42:14;12.37;;;7.67;;
18210;SDS011;9231;48.852;9.882;2023-10-13T06:44:41;12.90;;;8.20;;
18210;SDS011;9231;48.852;9.882;2023-10-13T06:47:10;11.30;;;6.87;;
18210;SDS011;9231;48.852;9.882;2023-10-13T06:49:36;13.17;;;7.23;;
18210;SDS011;9231;48.852;9.882;2023-10-13T06:52:05;11.20;;;6.80;;
18210;SDS011;9231;48.852;9.882;2023-10-13T06:54:32;15.30;;;7.10;;
18210;SDS011;9231;48.852;9.882;2023-10-13T06:57:00;8.17;;;6.33;;
18210;SDS011;9231;48.852;9.882;2023-10-13T06:59:31;9.40;;;6.67;;
18210;SDS011;9231;48.852;9.882;2023-10-13T07:02:01;10.80;;;6.33;;
18210;SDS011;9231;48.852;9.882;2023-10-13T07:04:30;14.57;;;7.93;;
18210;SDS011;9231;48.852;9.882;2023-10-13T07:06:57;11.10;;;7.50;;
18210;SDS011;9231;48.852;9.882;2023-10-13T07:09:27;10.93;;;8.47;;
18210;SDS011;9231;48.852;9.882;2023-10-13T07:12:10;10.77;;;8.27;;
18210;SDS011;9231;48.852;9.882;2023-10-13T07:14:45;13.70;;;8.40;;
18210;SDS011;9231;48.852;9.882;2023-10-13T07:17:16;17.07;;;9.10;;
18210;SDS011;9231;48.852;9.882;2023-10-13T07:19:48;14.30;;;10.13;;
18210;SDS011;9231;48.852;9.882;2023-10-13T07:22:18;13.97;;;11.40;;
18210;SDS011;9231;48.852;9.882;2023-10-13T07:24:47;11.67;;;8.80;;
18210;SDS011;9231;48.852;9.882;2023-10-13T07:27:14;9.00;;;5.40;;
18210;SDS011;9231;48.852;9.882;2023-10-13T07:29:47;6.03;;;4.30;;
18210;SDS011;9231;48.852;9.882;2023-10-13T07:32:19;7.27;;;4.57;;
18210;SDS011;9231;48.852;9.882;2023-10-13T07:34:49;8.60;;;6.50;;
18210;SDS011;9231;48.852;9.882;2023-10-13T07:37:15;9.53;;;5.97;;
18210;SDS011;9231;48.852;9.882;2023-10-13T07:39:44;8.00;;;5.40;;
18210;SDS011;9231;48.852;9.882;2023-10-13T07:42:16;10.90;;;4.80;;
18210;SDS011;9231;48.852;9.882;2023-10-13T07:44:45;10.83;;;5.20;;
18210;SDS011;9231;48.852;9.882;2023-10-13T07:47:12;8.87;;;4.87;;
18210;SDS011;9231;48.852;9.882;2023-10-13T07:49:39;8.73;;;5.07;;
18210;SDS011;9231;48.852;9.882;2023-10-13T07:52:06;6.83;;;4.73;;
18210;SDS011;9231;48.852;9.882;2023-10-13T07:54:48;9.07;;;5.00;;
18210;SDS011;9231;48.852;9.882;2023-10-13T07:57:22;8.90;;;5.00;;
18210;SDS011;9231;48.852;9.882;2023-10-13T07:59:54;7.40;;;4.70;;
18210;SDS011;9231;48.852;9.882;2023-10-13T08:02:31;9.17;;;5.23;;
18210;SDS011;9231;48.852;9.882;2023-10-13T08:05:13;8.30;;;4.90;;
18210;SDS011;9231;48.852;9.882;2023-10-13T08:07:49;7.73;;;4.60;;
18210;SDS011;9231;48.852;9.882;2023-10-13T08:10:21;7.93;;;4.77;;
18210;SDS011;9231;48.852;9.882;2023-10-13T08:12:56;8.63;;;4.27;;
18210;SDS011;9231;48.852;9.882;2023-10-13T08:15:24;9.23;;;4.73;;
18210;SDS011;9231;48.852;9.882;2023-10-13T08:17:57;9.87;;;4.80;;
18210;SDS011;9231;48.852;9.882;2023-10-13T08:20:29;7.93;;;4.83;;
18210;SDS011;9231;48.852;9.882;2023-10-13T08:23:03;9.27;;;4.47;;
18210;SDS011;9231;48.852;9.882;2023-10-13T08:25:38;8.37;;;4.80;;
18210;SDS011;9231;48.852;9.882;2023-10-13T08:28:20;8.87;;;4.90;;
18210;SDS011;9231;48.852;9.882;2023-10-13T08:31:04;5.67;;;4.50;;
18210;SDS011;9231;48.852;9.882;2023-10-13T08:33:39;7.47;;;4.00;;
18210;SDS011;9231;48.852;9.882;2023-10-13T08:36:11;7.77;;;3.23;;
18210;SDS011;9231;48.852;9.882;2023-10-13T08:38:52;6.27;;;3.17;;
18210;SDS011;9231;48.852;9.882;2023-10-13T08:41:20;8.63;;;3.30;;
18210;SDS011;9231;48.852;9.882;2023-10-13T08:44:04;7.93;;;2.93;;
18210;SDS011;9231;48.852;9.882;2023-10-13T08:46:34;5.67;;;2.97;;
18210;SDS011;9231;48.852;9.882;2023-10-13T08:49:26;6.67;;;3.33;;
18210;SDS011;9231;48.852;9.882;2023-10-13T08:51:54;6.17;;;3.17;;
18210;SDS011;9231;48.852;9.882;2023-10-13T08:54:32;6.47;;;3.10;;
18210;SDS011;9231;48.852;9.882;2023-10-13T08:57:04;7.67;;;3.20;;
18210;SDS011;9231;48.852;9.882;2023-10-13T08:59:46;7.73;;;2.90;;
18210;SDS011;9231;48.852;9.882;2023-10-13T09:02:20;8.57;;;3.37;;
18210;SDS011;9231;48.852;9.882;2023-10-13T09:04:47;9.60;;;2.83;;
18210;SDS011;9231;48.852;9.882;2023-10-13T09:07:24;8.97;;;3.27;;
18210;SDS011;9231;48.852;9.882;2023-10-13T09:09:50;10.27;;;2.77;;
18210;SDS011;9231;48.852;9.882;2023-10-13T09:12:36;9.00;;;2.90;;
18210;SDS011;9231;48.852;9.882;2023-10-13T09:15:06;10.00;;;2.83;;
18210;SDS011;9231;48.852;9.882;2023-10-13T09:17:43;9.60;;;2.95;;
18210;SDS011;9231;48.852;9.882;2023-10-13T09:20:13;8.65;;;2.70;;
18210;SDS011;9231;48.852;9.882;2023-10-13T09:22:56;7.05;;;2.47;;
18210;SDS011;9231;48.852;9.882;2023-10-13T09:25:33;8.95;;;3.05;;
18210;SDS011;9231;48.852;9.882;2023-10-13T09:28:00;6.25;;;2.50;;
18210;SDS011;9231;48.852;9.882;2023-10-13T09:30:28;4.65;;;2.55;;
18210;SDS011;9231;48.852;9.882;2023-10-13T09:32:59;5.28;;;3.08;;
18210;SDS011;9231;48.852;9.882;2023-10-13T09:35:27;8.38;;;2.58;;
18210;SDS011;9231;48.852;9.882;2023-10-13T09:37:54;5.72;;;2.03;;
18210;SDS011;9231;48.852;9.882;2023-10-13T09:40:23;6.90;;;2.00;;
18210;SDS011;9231;48.852;9.882;2023-10-13T09:42:53;7.22;;;2.88;;
18210;SDS011;9231;48.852;9.882;2023-10-13T09:45:26;6.68;;;2.22;;
18210;SDS011;9231;48.852;9.882;2023-10-13T09:47:54;9.00;;;2.35;;
18210;SDS011;9231;48.852;9.882;2023-10-13T09:50:22;13.20;;;2.80;;
18210;SDS011;9231;48.852;9.882;2023-10-13T09:52:49;5.80;;;2.28;;
18210;SDS011;9231;48.852;9.882;2023-10-13T09:55:19;10.30;;;2.65;;
18210;SDS011;9231;48.852;9.882;2023-10-13T09:57:48;8.00;;;2.42;;
18210;SDS011;9231;48.852;9.882;2023-10-13T10:00:22;5.68;;;2.38;;
18210;SDS011;9231;48.852;9.882;2023-10-13T10:03:12;4.78;;;2.22;;
18210;SDS011;9231;48.852;9.882;2023-10-13T10:05:57;5.70;;;2.25;;
18210;SDS011;9231;48.852;9.882;2023-10-13T10:08:30;10.10;;;2.17;;
18210;SDS011;9231;48.852;9.882;2023-10-13T10:13:58;3.40;;;1.80;;
18210;SDS011;9231;48.852;9.882;2023-10-13T10:16:32;9.52;;;2.25;;
18210;SDS011;9231;48.852;9.882;2023-10-13T10:19:04;6.05;;;2.47;;
18210;SDS011;9231;48.852;9.882;2023-10-13T10:21:33;7.88;;;2.08;;
18210;SDS011;9231;48.852;9.882;2023-10-13T10:24:00;7.13;;;2.22;;
18210;SDS011;9231;48.852;9.882;2023-10-13T10:26:30;7.20;;;2.45;;
18210;SDS011;9231;48.852;9.882;2023-10-13T10:28:57;4.63;;;2.00;;
18210;SDS011;9231;48.852;9.882;2023-10-13T10:31:30;9.65;;;3.35;;
18210;SDS011;9231;48.852;9.882;2023-10-13T10:34:11;7.35;;;2.50;;
18210;SDS011;9231;48.852;9.882;2023-10-13T10:36:37;11.65;;;2.35;;
18210;SDS011;9231;48.852;9.882;2023-10-13T10:39:08;4.75;;;2.00;;
18210;SDS011;9231;48.852;9.882;2023-10-13T10:41:37;7.82;;;2.50;;
18210;SDS011;9231;48.852;9.882;2023-10-13T10:44:10;6.95;;;1.80;;
18210;SDS011;9231;48.852;9.882;2023-10-13T10:46:40;4.75;;;2.30;;
18210;SDS011;9231;48.852;9.882;2023-10-13T10:49:18;6.30;;;2.03;;
18210;SDS011;9231;48.852;9.882;2023-10-13T10:51:52;9.63;;;2.30;;
18210;SDS011;9231;48.852;9.882;2023-10-13T10:54:23;6.63;;;2.53;;
18210;SDS011;9231;48.852;9.882;2023-10-13T10:56:55;3.75;;;2.15;;
18210;SDS011;9231;48.852;9.882;2023-10-13T10:59:25;7.45;;;2.38;;
18210;SDS011;9231;48.852;9.882;2023-10-13T11:01:54;8.98;;;2.53;;
18210;SDS011;9231;48.852;9.882;2023-10-13T11:04:25;7.50;;;2.28;;
18210;SDS011;9231;48.852;9.882;2023-10-13T11:06:59;5.43;;;2.22;;
18210;SDS011;9231;48.852;9.882;2023-10-13T11:09:26;7.45;;;2.75;;
18210;SDS011;9231;48.852;9.882;2023-10-13T11:12:11;7.53;;;2.65;;
18210;SDS011;9231;48.852;9.882;2023-10-13T11:14:41;4.78;;;2.00;;
18210;SDS011;9231;48.852;9.882;2023-10-13T11:17:18;7.25;;;2.45;;
18210;SDS011;9231;48.852;9.882;2023-10-13T11:19:50;8.85;;;2.80;;
18210;SDS011;9231;48.852;9.882;2023-10-13T11:22:18;6.65;;;2.10;;
18210;SDS011;9231;48.852;9.882;2023-10-13T11:24:57;6.15;;;2.25;;
18210;SDS011;9231;48.852;9.882;2023-10-13T11:27:28;5.45;;;2.47;;
18210;SDS011;9231;48.852;9.882;2023-10-13T11:30:09;4.95;;;2.28;;
18210;SDS011;9231;48.852;9.882;2023-10-13T11:32:38;8.52;;;2.30;;
18210;SDS011;9231;48.852;9.882;2023-10-13T11:35:08;5.97;;;2.40;;
18210;SDS011;9231;48.852;9.882;2023-10-13T11:37:45;4.32;;;2.25;;
18210;SDS011;9231;48.852;9.882;2023-10-13T11:40:21;4.47;;;2.13;;
18210;SDS011;9231;48.852;9.882;2023-10-13T11:43:07;6.82;;;2.30;;
18210;SDS011;9231;48.852;9.882;2023-10-13T11:45:38;5.78;;;2.20;;
18210;SDS011;9231;48.852;9.882;2023-10-13T11:48:17;5.50;;;2.10;;
18210;SDS011;9231;48.852;9.882;2023-10-13T11:50:50;5.93;;;2.50;;
18210;SDS011;9231;48.852;9.882;2023-10-13T11:53:16;6.53;;;2.17;;
18210;SDS011;9231;48.852;9.882;2023-10-13T11:55:42;8.02;;;2.15;;
18210;SDS011;9231;48.852;9.882;2023-10-13T11:58:08;6.20;;;2.60;;
18210;SDS011;9231;48.852;9.882;2023-10-13T12:00:35;4.70;;;2.55;;
18210;SDS011;9231;48.852;9.882;2023-10-13T12:03:15;5.53;;;2.60;;
18210;SDS011;9231;48.852;9.882;2023-10-13T12:06:00;4.18;;;1.75;;
18210;SDS011;9231;48.852;9.882;2023-10-13T12:08:44;8.27;;;2.47;;
18210;SDS011;9231;48.852;9.882;2023-10-13T12:11:14;7.03;;;2.58;;
18210;SDS011;9231;48.852;9.882;2023-10-13T12:13:55;8.35;;;2.22;;
18210;SDS011;9231;48.852;9.882;2023-10-13T12:16:21;6.53;;;2.33;;
18210;SDS011;9231;48.852;9.882;2023-10-13T12:18:48;7.13;;;2.95;;
18210;SDS011;9231;48.852;9.882;2023-10-13T12:21:19;7.78;;;2.63;;
18210;SDS011;9231;48.852;9.882;2023-10-13T12:23:46;8.38;;;2.72;;
18210;SDS011;9231;48.852;9.882;2023-10-13T12:26:15;6.38;;;2.53;;
18210;SDS011;9231;48.852;9.882;2023-10-13T12:28:45;5.28;;;2.55;;
18210;SDS011;9231;48.852;9.882;2023-10-13T12:31:16;4.43;;;2.13;;
18210;SDS011;9231;48.852;9.882;2023-10-13T12:33:51;5.63;;;2.40;;
18210;SDS011;9231;48.852;9.882;2023-10-13T12:36:19;6.63;;;2.72;;
18210;SDS011;9231;48.852;9.882;2023-10-13T12:38:56;6.10;;;2.65;;
18210;SDS011;9231;48.852;9.882;2023-10-13T12:41:40;6.78;;;3.05;;
18210;SDS011;9231;48.852;9.882;2023-10-13T12:44:24;6.78;;;2.35;;
18210;SDS011;9231;48.852;9.882;2023-10-13T12:47:08;6.78;;;2.65;;
18210;SDS011;9231;48.852;9.882;2023-10-13T12:49:52;4.97;;;2.63;;
18210;SDS011;9231;48.852;9.882;2023-10-13T12:52:26;7.55;;;2.55;;
18210;SDS011;9231;48.852;9.882;2023-10-13T12:54:57;6.88;;;2.25;;
18210;SDS011;9231;48.852;9.882;2023-10-13T12:57:40;5.20;;;2.42;;
18210;SDS011;9231;48.852;9.882;2023-10-13T13:00:10;7.22;;;2.35;;
18210;SDS011;9231;48.852;9.882;2023-10-13T13:02:46;6.78;;;2.60;;
18210;SDS011;9231;48.852;9.882;2023-10-13T13:05:12;6.38;;;2.63;;
18210;SDS011;9231;48.852;9.882;2023-10-13T13:07:40;5.32;;;2.20;;
18210;SDS011;9231;48.852;9.882;2023-10-13T13:10:12;4.68;;;2.20;;
18210;SDS011;9231;48.852;9.882;2023-10-13T13:12:39;3.15;;;1.92;;
18210;SDS011;9231;48.852;9.882;2023-10-13T13:15:05;5.78;;;2.55;;
18210;SDS011;9231;48.852;9.882;2023-10-13T13:17:34;5.32;;;2.42;;
18210;SDS011;9231;48.852;9.882;2023-10-13T13:20:00;6.03;;;2.38;;
18210;SDS011;9231;48.852;9.882;2023-10-13T13:22:35;7.45;;;3.08;;
18210;SDS011;9231;48.852;9.882;2023-10-13T13:25:03;9.52;;;2.42;;
18210;SDS011;9231;48.852;9.882;2023-10-13T13:27:33;4.30;;;2.30;;
18210;SDS011;9231;48.852;9.882;2023-10-13T13:29:59;4.57;;;2.28;;
18210;SDS011;9231;48.852;9.882;2023-10-13T13:32:26;5.43;;;2.20;;
18210;SDS011;9231;48.852;9.882;2023-10-13T13:34:53;4.15;;;2.17;;
18210;SDS011;9231;48.852;9.882;2023-10-13T13:37:24;6.32;;;2.13;;
18210;SDS011;9231;48.852;9.882;2023-10-13T13:39:52;7.15;;;2.47;;
18210;SDS011;9231;48.852;9.882;2023-10-13T13:42:20;5.75;;;1.50;;
18210;SDS011;9231;48.852;9.882;2023-10-13T13:44:46;3.90;;;2.17;;
18210;SDS011;9231;48.852;9.882;2023-10-13T13:47:12;6.00;;;2.53;;
18210;SDS011;9231;48.852;9.882;2023-10-13T13:49:38;5.90;;;2.15;;
18210;SDS011;9231;48.852;9.882;2023-10-13T13:52:06;3.47;;;2.00;;
18210;SDS011;9231;48.852;9.882;2023-10-13T13:54:32;7.30;;;2.40;;
18210;SDS011;9231;48.852;9.882;2023-10-13T13:56:59;6.80;;;2.25;;
18210;SDS011;9231;48.852;9.882;2023-10-13T13:59:27;8.07;;;2.40;;
18210;SDS011;9231;48.852;9.882;2023-10-13T14:01:59;5.00;;;2.40;;
18210;SDS011;9231;48.852;9.882;2023-10-13T14:04:25;5.22;;;2.33;;
18210;SDS011;9231;48.852;9.882;2023-10-13T14:06:56;4.90;;;2.05;;
18210;SDS011;9231;48.852;9.882;2023-10-13T14:09:22;8.65;;;2.15;;
18210;SDS011;9231;48.852;9.882;2023-10-13T14:12:01;6.40;;;2.38;;
18210;SDS011;9231;48.852;9.882;2023-10-13T14:14:46;6.05;;;2.60;;
18210;SDS011;9231;48.852;9.882;2023-10-13T14:17:16;7.28;;;2.67;;
18210;SDS011;9231;48.852;9.882;2023-10-13T14:19:42;8.77;;;2.20;;
18210;SDS011;9231;48.852;9.882;2023-10-13T14:22:10;7.38;;;2.60;;
18210;SDS011;9231;48.852;9.882;2023-10-13T14:24:38;4.03;;;2.42;;
18210;SDS011;9231;48.852;9.882;2023-10-13T14:27:08;6.20;;;2.42;;
18210;SDS011;9231;48.852;9.882;2023-10-13T14:29:37;5.95;;;2.40;;
18210;SDS011;9231;48.852;9.882;2023-10-13T14:32:07;5.43;;;2.25;;
18210;SDS011;9231;48.852;9.882;2023-10-13T14:34:37;8.50;;;2.70;;
18210;SDS011;9231;48.852;9.882;2023-10-13T14:37:03;7.13;;;2.80;;
18210;SDS011;9231;48.852;9.882;2023-10-13T14:39:30;7.55;;;2.70;;
18210;SDS011;9231;48.852;9.882;2023-10-13T14:41:59;7.13;;;2.90;;
18210;SDS011;9231;48.852;9.882;2023-10-13T14:44:26;5.15;;;2.58;;
18210;SDS011;9231;48.852;9.882;2023-10-13T14:46:52;7.47;;;2.65;;
18210;SDS011;9231;48.852;9.882;2023-10-13T14:49:21;10.55;;;3.08;;
18210;SDS011;9231;48.852;9.882;2023-10-13T14:51:47;6.97;;;3.22;;
18210;SDS011;9231;48.852;9.882;2023-10-13T14:54:14;7.15;;;2.97;;
18210;SDS011;9231;48.852;9.882;2023-10-13T14:56:41;5.20;;;2.70;;
18210;SDS011;9231;48.852;9.882;2023-10-13T14:59:07;6.03;;;2.50;;
18210;SDS011;9231;48.852;9.882;2023-10-13T15:01:41;8.48;;;2.78;;
18210;SDS011;9231;48.852;9.882;2023-10-13T15:04:08;5.60;;;2.83;;
18210;SDS011;9231;48.852;9.882;2023-10-13T15:06:36;7.45;;;2.72;;
18210;SDS011;9231;48.852;9.882;2023-10-13T15:09:02;5.90;;;2.80;;
18210;SDS011;9231;48.852;9.882;2023-10-13T15:11:35;6.80;;;3.15;;
18210;SDS011;9231;48.852;9.882;2023-10-13T15:14:02;7.65;;;2.60;;
18210;SDS011;9231;48.852;9.882;2023-10-13T15:16:28;7.35;;;3.13;;
18210;SDS011;9231;48.852;9.882;2023-10-13T15:18:55;8.95;;;4.22;;
18210;SDS011;9231;48.852;9.882;2023-10-13T15:21:22;7.18;;;4.00;;
18210;SDS011;9231;48.852;9.882;2023-10-13T15:23:53;7.10;;;3.70;;
18210;SDS011;9231;48.852;9.882;2023-10-13T15:26:24;6.25;;;3.67;;
18210;SDS011;9231;48.852;9.882;2023-10-13T15:28:50;6.22;;;3.45;;
18210;SDS011;9231;48.852;9.882;2023-10-13T15:31:18;7.03;;;3.17;;
18210;SDS011;9231;48.852;9.882;2023-10-13T15:34:02;6.38;;;3.42;;
18210;SDS011;9231;48.852;9.882;2023-10-13T15:36:32;5.95;;;2.78;;